Kezdőlap
METAR-TAF:

METAR-TAF

Repülőterek :

Aktau, Kazahsztán

földrajzi szélesség: 43-52-12N, földrajzi hosszúság: 051-06E, magasság: 22 m

Jelenlegi meteorológiai megfigyelések

A jelentés 34 perccel ezelõtt készült, 08:30 UTC
Keleti szél 14 kt
Hőmérséklet 14°C
Páratartalom 77%
Légköri nyomás 1016 hPa
Látótávolság 10 km, vagy több
Szakadozott felhőzet 2400 lábon

METAR: UATE 230830Z 09007MPS 9999 BKN024 14/10 Q1016 R12/1///65 NOSIG RMK QFE760/1013

Idő: 14:04 (09:04 UTC)

Előrejelzés

A jelentés 4 órával és 2 perccel ezelõtt készült, 05:02 UTC
Az előrejelzés 23-én 06 óra UTC és 24-én 06 óra UTC között érvényes
Kelet-délkeleti szél 14 kt
Látótávolság 10 km, vagy több
Szórványos felhőzet 3000 lábon, Cumulonimbus.

TAF: UATE 230502Z 2306/2406 11007MPS 9999 SCT030CB TX18/2309Z TN12/2402Z

Meteorológiai megfigyelések és előrejelzések több, mint 4000 repülőtéren (METAR és TAF jelentéseket).

A térképen piros és sárga pontok jelzik az elérhető meteorológiai állomásokat.

Mozgassa az egeret a pont fölött, hogy megjelenjen az állomás neve.

Azután kattintson az időjárási megfigyelések és előrejelzések megtekintéséhez.

A térkép megváltoztatása: kattintson a fekete keresztel jelölt zöld gombra ráközelítéshez, a vonallal jelölt zöld gombra távolításhoz, vagy a zöld nyilakra a szomszédos térképek eléréséhez.


METAR-TAF: